Morning Lady — 3FKC3 — position and weather

sailwx.info

Track history (hours):
 
Tides and Currents Weather Stations Pressure Air Temp Water Temp Dewpoint Dewpoint Depression Visibility Wind Speed Wind Dir Waves Ship Positions

Morning Lady

Last reported at 2015-Sep-02 07:13 UTC. Time now 2015-Sep-02 10:34 UTC.
Position N 55°34' E 006°34'.

Length 234 m; draft 8 m.

Type: Ship. MMSI: 356473000.

Date/timePositionNaut miles runAvg speedWind from/ knotsBaromVisibWave heightAir tempDewpointWater temp
2015-Sep-02 07:13N 55°34' E 006°34'1015.4
2015-Sep-02 06:33N 55°25' E 006°26'7014.0
2015-Sep-02 01:33N 54°24' E 005°25'1414.0
2015-Sep-02 00:33N 54°12' E 005°14'1414.0
2015-Sep-01 23:33N 53°59' E 005°05'1414.3
2015-Sep-01 22:33N 53°46' E 004°56'1414.4
2015-Sep-01 21:34N 53°32' E 004°47'1514.6
2015-Sep-01 20:33N 53°19' E 004°38'1515.2
2015-Sep-01 19:33N 53°05' E 004°27'1515.4
2015-Sep-01 18:33N 52°51' E 004°16'1615.7
2015-Sep-01 17:33N 52°38' E 004°01'1615.7
2015-Sep-01 16:34N 52°23' E 003°53'1515.4
2015-Sep-01 15:34N 52°08' E 003°55'10 9.5
2015-Sep-01 14:33N 51°60' E 004°02'8 8.2
2015-Sep-01 13:33N 51°55' E 004°13'2 1.7
2015-Sep-01 12:32N 51°54' E 004°15'0 0.0
2015-Sep-01 11:32N 51°54' E 004°15'0 0.0
2015-Sep-01 10:32N 51°54' E 004°15'0 0.0
2015-Sep-01 09:32N 51°54' E 004°15'0 0.0
2015-Sep-01 08:32N 51°54' E 004°15'0 0.0
2015-Sep-01 07:32N 51°54' E 004°15'0 0.0
2015-Sep-01 06:32N 51°54' E 004°15'0 0.0
2015-Sep-01 05:32N 51°54' E 004°15'0 0.0
2015-Sep-01 04:32N 51°54' E 004°15'0 0.0
2015-Sep-01 03:32N 51°54' E 004°15'0 0.0
2015-Sep-01 02:32N 51°54' E 004°15'0 0.0
2015-Sep-01 01:32N 51°54' E 004°15'0 0.0
2015-Sep-01 00:32N 51°54' E 004°15'0 0.0
2015-Aug-31 23:32N 51°54' E 004°15'0 0.0
2015-Aug-31 22:32N 51°54' E 004°15'0 0.0
2015-Aug-31 21:32N 51°54' E 004°15'0 0.0
2015-Aug-31 20:32N 51°54' E 004°15'0 0.0
2015-Aug-31 19:32N 51°54' E 004°15'0 0.0
2015-Aug-31 18:32N 51°54' E 004°15'0 0.0
2015-Aug-31 17:32N 51°54' E 004°15'0 0.0
2015-Aug-31 16:32N 51°54' E 004°15'0 0.0
2015-Aug-31 15:32N 51°54' E 004°15'0 0.0
2015-Aug-31 14:32N 51°54' E 004°15'1 0.7
2015-Aug-31 13:34N 51°54' E 004°14'7 6.6
2015-Aug-31 12:34N 51°58' E 004°06'1313.3
2015-Aug-31 11:33N 51°58' E 003°44'1615.7
2015-Aug-31 10:33N 51°53' E 003°21'1414.0
2015-Aug-31 09:33N 51°40' E 003°12'1515.1
2015-Aug-31 08:34N 51°27' E 002°60'1615.9
2015-Aug-31 07:34N 51°25' E 003°25'1413.7
2015-Aug-31 06:33N 51°22' E 003°46'1111.0
2015-Aug-31 05:34N 51°22' E 004°04'1110.8
2015-Aug-31 04:33N 51°17' E 004°19'2 2.2
2015-Aug-31 03:33N 51°16' E 004°17'2 2.2
2015-Aug-31 02:32N 51°16' E 004°13'0 0.0
2015-Aug-31 01:32N 51°16' E 004°13'0 0.0
2015-Aug-31 00:32N 51°16' E 004°13'0 0.0
2015-Aug-30 23:32N 51°16' E 004°13'0 0.0
2015-Aug-30 22:32N 51°16' E 004°13'0 0.0
2015-Aug-30 21:32N 51°16' E 004°13'0 0.0
2015-Aug-30 20:32N 51°16' E 004°13'0 0.0
2015-Aug-30 19:32N 51°16' E 004°13'0 0.0
2015-Aug-30 18:32N 51°16' E 004°13'0 0.0
2015-Aug-30 17:32N 51°16' E 004°13'0 0.0
2015-Aug-30 16:32N 51°16' E 004°13'0 0.0
2015-Aug-30 15:32N 51°16' E 004°13'0 0.0
2015-Aug-30 14:32N 51°16' E 004°13'0 0.0
2015-Aug-30 13:32N 51°16' E 004°13'0 0.0
2015-Aug-30 12:32N 51°16' E 004°13'0 0.0
2015-Aug-30 11:32N 51°16' E 004°13'0 0.0
2015-Aug-30 10:32N 51°16' E 004°13'0 0.0
2015-Aug-30 09:32N 51°16' E 004°13'0 0.0
2015-Aug-30 08:32N 51°16' E 004°13'0 0.0
2015-Aug-30 07:32N 51°16' E 004°13'0 0.0
2015-Aug-30 06:32N 51°16' E 004°13'0 0.0
2015-Aug-30 05:32N 51°16' E 004°13'1 0.9
2015-Aug-30 04:33N 51°16' E 004°14'1 1.4
2015-Aug-30 03:34N 51°16' E 004°17'5 5.1
2015-Aug-30 02:34N 51°21' E 004°15'10 9.5
2015-Aug-30 01:33N 51°25' E 004°02'1111.1
2015-Aug-30 00:34N 51°22' E 003°45'9 9.3
2015-Aug-29 23:33N 51°25' E 003°31'1716.7
2015-Aug-29 22:33N 51°24' E 003°04'1514.9
2015-Aug-29 21:33N 51°22' E 002°41'1212.4
2015-Aug-29 20:33N 51°20' E 002°21'1414.2
2015-Aug-29 19:33N 51°24' E 001°59'1413.6
2015-Aug-29 18:33N 51°29' E 001°39'6 5.8
2015-Aug-29 17:33N 51°27' E 001°30'1211.6
2015-Aug-29 16:34N 51°36' E 001°20'1717.4
2015-Aug-29 15:33N 51°29' E 000°54'1716.8
2015-Aug-29 14:34N 51°29' E 000°27'4 3.9
2015-Aug-29 13:33N 51°27' E 000°22'0 0.0
2015-Aug-29 12:34N 51°27' E 000°22'0 0.0
2015-Aug-29 11:33N 51°27' E 000°22'0 0.0
2015-Aug-29 10:34N 51°27' E 000°22'0 0.0
2015-Aug-29 09:33N 51°27' E 000°22'0 0.0
2015-Aug-29 08:33N 51°27' E 000°22'0 0.0
2015-Aug-29 07:33N 51°27' E 000°22'0 0.0
2015-Aug-29 06:34N 51°27' E 000°22'0 0.0
2015-Aug-29 05:34N 51°27' E 000°22'0 0.0
2015-Aug-29 04:33N 51°27' E 000°22'0 0.0
2015-Aug-29 03:34N 51°27' E 000°22'0 0.0
2015-Aug-29 02:33N 51°27' E 000°22'0 0.0
2015-Aug-29 01:33N 51°27' E 000°22'0 0.0
2015-Aug-29 00:33N 51°27' E 000°22'0 0.0
2015-Aug-28 23:33N 51°27' E 000°22'0 0.0
2015-Aug-28 22:33N 51°27' E 000°22'0 0.0
2015-Aug-28 21:33N 51°27' E 000°22'2 1.9
2015-Aug-28 20:33N 51°27' E 000°25'1312.5
2015-Aug-28 19:33N 51°30' E 000°44'1615.8
2015-Aug-28 18:33N 51°33' E 001°09'1010.4
2015-Aug-28 17:33N 51°34' E 001°26'6 5.6
2015-Aug-28 16:34N 51°30' E 001°32'1 1.2
2015-Aug-28 15:33N 51°30' E 001°30'0 0.0
2015-Aug-28 14:33N 51°30' E 001°30'0 0.0
2015-Aug-28 13:33N 51°31' E 001°30'0 0.0
2015-Aug-28 12:33N 51°31' E 001°30'0 0.0
2015-Aug-28 11:33N 51°31' E 001°30'0 0.0
2015-Aug-28 10:33N 51°31' E 001°30'0 0.0
2015-Aug-28 09:33N 51°30' E 001°30'0 0.0
2015-Aug-28 08:33N 51°30' E 001°30'0 0.0
2015-Aug-28 07:33N 51°30' E 001°30'0 0.0
2015-Aug-28 06:33N 51°30' E 001°30'0 0.0
2015-Aug-28 05:33N 51°30' E 001°30'0 0.1
2015-Aug-28 04:33N 51°30' E 001°30'0 0.0
2015-Aug-28 03:33N 51°31' E 001°30'0 0.0
2015-Aug-28 02:33N 51°31' E 001°30'0 0.0
2015-Aug-28 01:33N 51°31' E 001°30'0 0.0
2015-Aug-28 00:33N 51°31' E 001°30'0 0.0
2015-Aug-27 23:33N 51°31' E 001°30'0 0.0
2015-Aug-27 22:33N 51°31' E 001°30'0 0.1
2015-Aug-27 21:33N 51°31' E 001°30'0 0.0
2015-Aug-27 20:33N 51°31' E 001°30'0 0.0
2015-Aug-27 19:33N 51°30' E 001°30'0 0.1
2015-Aug-27 18:33N 51°31' E 001°30'0 0.0
2015-Aug-27 17:33N 51°31' E 001°30'0 0.0
2015-Aug-27 16:33N 51°31' E 001°30'0 0.0
2015-Aug-27 15:33N 51°31' E 001°30'0 0.0
2015-Aug-27 14:33N 51°31' E 001°30'0 0.0
2015-Aug-27 13:33N 51°31' E 001°30'0 0.0
2015-Aug-27 12:33N 51°31' E 001°30'0 0.0
2015-Aug-27 11:33N 51°31' E 001°30'4 3.7
2015-Aug-27 10:33N 51°27' E 001°33'1717.0
2015-Aug-27 09:34N 51°11' E 001°37'1414.4
2015-Aug-27 08:33N 50°57' E 001°31'5616.2
2015-Aug-27 05:08N 50°23' E 000°22'23211.8
2015-Aug-26 09:26N 50°43' W 005°42'1315.0
2015-Aug-26 08:33N 50°52' W 005°27'9713.8
2015-Aug-26 01:34N 51°25' W 003°02'1212.2
2015-Aug-26 00:33N 51°30' W 002°44'1 0.7
2015-Aug-25 23:32N 51°30' W 002°43'0 0.0
2015-Aug-25 22:32N 51°30' W 002°43'0 0.0
2015-Aug-25 21:32N 51°30' W 002°43'0 0.0
2015-Aug-25 20:32N 51°30' W 002°43'0 0.0
2015-Aug-25 19:32N 51°30' W 002°43'0 0.0
2015-Aug-25 18:32N 51°30' W 002°43'0 0.0
2015-Aug-25 17:32N 51°30' W 002°43'0 0.0
2015-Aug-25 16:32N 51°30' W 002°43'0 0.0
2015-Aug-25 15:32N 51°30' W 002°43'0 0.0
2015-Aug-25 14:32N 51°30' W 002°43'0 0.0
2015-Aug-25 13:32N 51°30' W 002°43'0 0.4
2015-Aug-25 12:33N 51°30' W 002°43'7 7.1
2015-Aug-25 11:33N 51°28' W 002°54'11212.0
2015-Aug-25 02:12N 50°51' W 005°43'  
Track history (hours):
 
Tides and Currents Weather Stations Pressure Air Temp Water Temp Dewpoint Dewpoint Depression Visibility Wind Speed Wind Dir Waves Ship Positions

Morning Lady

Last reported at 2015-Sep-02 07:13 UTC. Time now 2015-Sep-02 10:34 UTC.
Position N 55°34' E 006°34'.

Length 234 m; draft 8 m.

Type: Ship. MMSI: 356473000.

Date/timePositionNaut miles runAvg speedWind from/ knotsBaromVisibWave heightAir tempDewpointWater temp
2015-Sep-02 07:13N 55°34' E 006°34'1015.4
2015-Sep-02 06:33N 55°25' E 006°26'7014.0
2015-Sep-02 01:33N 54°24' E 005°25'1414.0
2015-Sep-02 00:33N 54°12' E 005°14'1414.0
2015-Sep-01 23:33N 53°59' E 005°05'1414.3
2015-Sep-01 22:33N 53°46' E 004°56'1414.4
2015-Sep-01 21:34N 53°32' E 004°47'1514.6
2015-Sep-01 20:33N 53°19' E 004°38'1515.2
2015-Sep-01 19:33N 53°05' E 004°27'1515.4
2015-Sep-01 18:33N 52°51' E 004°16'1615.7
2015-Sep-01 17:33N 52°38' E 004°01'1615.7
2015-Sep-01 16:34N 52°23' E 003°53'1515.4
2015-Sep-01 15:34N 52°08' E 003°55'10 9.5
2015-Sep-01 14:33N 51°60' E 004°02'8 8.2
2015-Sep-01 13:33N 51°55' E 004°13'2 1.7
2015-Sep-01 12:32N 51°54' E 004°15'0 0.0
2015-Sep-01 11:32N 51°54' E 004°15'0 0.0
2015-Sep-01 10:32N 51°54' E 004°15'0 0.0
2015-Sep-01 09:32N 51°54' E 004°15'0 0.0
2015-Sep-01 08:32N 51°54' E 004°15'0 0.0
2015-Sep-01 07:32N 51°54' E 004°15'0 0.0
2015-Sep-01 06:32N 51°54' E 004°15'0 0.0
2015-Sep-01 05:32N 51°54' E 004°15'0 0.0
2015-Sep-01 04:32N 51°54' E 004°15'0 0.0
2015-Sep-01 03:32N 51°54' E 004°15'0 0.0
2015-Sep-01 02:32N 51°54' E 004°15'0 0.0
2015-Sep-01 01:32N 51°54' E 004°15'0 0.0
2015-Sep-01 00:32N 51°54' E 004°15'0 0.0
2015-Aug-31 23:32N 51°54' E 004°15'0 0.0
2015-Aug-31 22:32N 51°54' E 004°15'0 0.0
2015-Aug-31 21:32N 51°54' E 004°15'0 0.0
2015-Aug-31 20:32N 51°54' E 004°15'0 0.0
2015-Aug-31 19:32N 51°54' E 004°15'0 0.0
2015-Aug-31 18:32N 51°54' E 004°15'0 0.0
2015-Aug-31 17:32N 51°54' E 004°15'0 0.0
2015-Aug-31 16:32N 51°54' E 004°15'0 0.0
2015-Aug-31 15:32N 51°54' E 004°15'0 0.0
2015-Aug-31 14:32N 51°54' E 004°15'1 0.7
2015-Aug-31 13:34N 51°54' E 004°14'7 6.6
2015-Aug-31 12:34N 51°58' E 004°06'1313.3
2015-Aug-31 11:33N 51°58' E 003°44'1615.7
2015-Aug-31 10:33N 51°53' E 003°21'1414.0
2015-Aug-31 09:33N 51°40' E 003°12'1515.1
2015-Aug-31 08:34N 51°27' E 002°60'1615.9
2015-Aug-31 07:34N 51°25' E 003°25'1413.7
2015-Aug-31 06:33N 51°22' E 003°46'1111.0
2015-Aug-31 05:34N 51°22' E 004°04'1110.8
2015-Aug-31 04:33N 51°17' E 004°19'2 2.2
2015-Aug-31 03:33N 51°16' E 004°17'2 2.2
2015-Aug-31 02:32N 51°16' E 004°13'0 0.0
2015-Aug-31 01:32N 51°16' E 004°13'0 0.0
2015-Aug-31 00:32N 51°16' E 004°13'0 0.0
2015-Aug-30 23:32N 51°16' E 004°13'0 0.0
2015-Aug-30 22:32N 51°16' E 004°13'0 0.0
2015-Aug-30 21:32N 51°16' E 004°13'0 0.0
2015-Aug-30 20:32N 51°16' E 004°13'0 0.0
2015-Aug-30 19:32N 51°16' E 004°13'0 0.0
2015-Aug-30 18:32N 51°16' E 004°13'0 0.0
2015-Aug-30 17:32N 51°16' E 004°13'0 0.0
2015-Aug-30 16:32N 51°16' E 004°13'0 0.0
2015-Aug-30 15:32N 51°16' E 004°13'0 0.0
2015-Aug-30 14:32N 51°16' E 004°13'0 0.0
2015-Aug-30 13:32N 51°16' E 004°13'0 0.0
2015-Aug-30 12:32N 51°16' E 004°13'0 0.0
2015-Aug-30 11:32N 51°16' E 004°13'0 0.0
2015-Aug-30 10:32N 51°16' E 004°13'0 0.0
2015-Aug-30 09:32N 51°16' E 004°13'0 0.0
2015-Aug-30 08:32N 51°16' E 004°13'0 0.0
2015-Aug-30 07:32N 51°16' E 004°13'0 0.0
2015-Aug-30 06:32N 51°16' E 004°13'0 0.0
2015-Aug-30 05:32N 51°16' E 004°13'1 0.9
2015-Aug-30 04:33N 51°16' E 004°14'1 1.4
2015-Aug-30 03:34N 51°16' E 004°17'5 5.1
2015-Aug-30 02:34N 51°21' E 004°15'10 9.5
2015-Aug-30 01:33N 51°25' E 004°02'1111.1
2015-Aug-30 00:34N 51°22' E 003°45'9 9.3
2015-Aug-29 23:33N 51°25' E 003°31'1716.7
2015-Aug-29 22:33N 51°24' E 003°04'1514.9
2015-Aug-29 21:33N 51°22' E 002°41'1212.4
2015-Aug-29 20:33N 51°20' E 002°21'1414.2
2015-Aug-29 19:33N 51°24' E 001°59'1413.6
2015-Aug-29 18:33N 51°29' E 001°39'6 5.8
2015-Aug-29 17:33N 51°27' E 001°30'1211.6
2015-Aug-29 16:34N 51°36' E 001°20'1717.4
2015-Aug-29 15:33N 51°29' E 000°54'1716.8
2015-Aug-29 14:34N 51°29' E 000°27'4 3.9
2015-Aug-29 13:33N 51°27' E 000°22'0 0.0
2015-Aug-29 12:34N 51°27' E 000°22'0 0.0
2015-Aug-29 11:33N 51°27' E 000°22'0 0.0
2015-Aug-29 10:34N 51°27' E 000°22'0 0.0
2015-Aug-29 09:33N 51°27' E 000°22'0 0.0
2015-Aug-29 08:33N 51°27' E 000°22'0 0.0
2015-Aug-29 07:33N 51°27' E 000°22'0 0.0
2015-Aug-29 06:34N 51°27' E 000°22'0 0.0
2015-Aug-29 05:34N 51°27' E 000°22'0 0.0
2015-Aug-29 04:33N 51°27' E 000°22'0 0.0
2015-Aug-29 03:34N 51°27' E 000°22'0 0.0
2015-Aug-29 02:33N 51°27' E 000°22'0 0.0
2015-Aug-29 01:33N 51°27' E 000°22'0 0.0
2015-Aug-29 00:33N 51°27' E 000°22'0 0.0
2015-Aug-28 23:33N 51°27' E 000°22'0 0.0
2015-Aug-28 22:33N 51°27' E 000°22'0 0.0
2015-Aug-28 21:33N 51°27' E 000°22'2 1.9
2015-Aug-28 20:33N 51°27' E 000°25'1312.5
2015-Aug-28 19:33N 51°30' E 000°44'1615.8
2015-Aug-28 18:33N 51°33' E 001°09'1010.4
2015-Aug-28 17:33N 51°34' E 001°26'6 5.6
2015-Aug-28 16:34N 51°30' E 001°32'1 1.2
2015-Aug-28 15:33N 51°30' E 001°30'0 0.0
2015-Aug-28 14:33N 51°30' E 001°30'0 0.0
2015-Aug-28 13:33N 51°31' E 001°30'0 0.0
2015-Aug-28 12:33N 51°31' E 001°30'0 0.0
2015-Aug-28 11:33N 51°31' E 001°30'0 0.0
2015-Aug-28 10:33N 51°31' E 001°30'0 0.0
2015-Aug-28 09:33N 51°30' E 001°30'0 0.0
2015-Aug-28 08:33N 51°30' E 001°30'0 0.0
2015-Aug-28 07:33N 51°30' E 001°30'0 0.0
2015-Aug-28 06:33N 51°30' E 001°30'0 0.0
2015-Aug-28 05:33N 51°30' E 001°30'0 0.1
2015-Aug-28 04:33N 51°30' E 001°30'0 0.0
2015-Aug-28 03:33N 51°31' E 001°30'0 0.0
2015-Aug-28 02:33N 51°31' E 001°30'0 0.0
2015-Aug-28 01:33N 51°31' E 001°30'0 0.0
2015-Aug-28 00:33N 51°31' E 001°30'0 0.0
2015-Aug-27 23:33N 51°31' E 001°30'0 0.0
2015-Aug-27 22:33N 51°31' E 001°30'0 0.1
2015-Aug-27 21:33N 51°31' E 001°30'0 0.0
2015-Aug-27 20:33N 51°31' E 001°30'0 0.0
2015-Aug-27 19:33N 51°30' E 001°30'0 0.1
2015-Aug-27 18:33N 51°31' E 001°30'0 0.0
2015-Aug-27 17:33N 51°31' E 001°30'0 0.0
2015-Aug-27 16:33N 51°31' E 001°30'0 0.0
2015-Aug-27 15:33N 51°31' E 001°30'0 0.0
2015-Aug-27 14:33N 51°31' E 001°30'0 0.0
2015-Aug-27 13:33N 51°31' E 001°30'0 0.0
2015-Aug-27 12:33N 51°31' E 001°30'0 0.0
2015-Aug-27 11:33N 51°31' E 001°30'4 3.7
2015-Aug-27 10:33N 51°27' E 001°33'1717.0
2015-Aug-27 09:34N 51°11' E 001°37'1414.4
2015-Aug-27 08:33N 50°57' E 001°31'5616.2
2015-Aug-27 05:08N 50°23' E 000°22'23211.8
2015-Aug-26 09:26N 50°43' W 005°42'1315.0
2015-Aug-26 08:33N 50°52' W 005°27'9713.8
2015-Aug-26 01:34N 51°25' W 003°02'1212.2
2015-Aug-26 00:33N 51°30' W 002°44'1 0.7
2015-Aug-25 23:32N 51°30' W 002°43'0 0.0
2015-Aug-25 22:32N 51°30' W 002°43'0 0.0
2015-Aug-25 21:32N 51°30' W 002°43'0 0.0
2015-Aug-25 20:32N 51°30' W 002°43'0 0.0
2015-Aug-25 19:32N 51°30' W 002°43'0 0.0
2015-Aug-25 18:32N 51°30' W 002°43'0 0.0
2015-Aug-25 17:32N 51°30' W 002°43'0 0.0
2015-Aug-25 16:32N 51°30' W 002°43'0 0.0
2015-Aug-25 15:32N 51°30' W 002°43'0 0.0
2015-Aug-25 14:32N 51°30' W 002°43'0 0.0
2015-Aug-25 13:32N 51°30' W 002°43'0 0.4
2015-Aug-25 12:33N 51°30' W 002°43'7 7.1
2015-Aug-25 11:33N 51°28' W 002°54'11212.0
2015-Aug-25 02:12N 50°51' W 005°43'  

Dump ship's entire track history